This is the latest recevied weather packets stored in our database for station/object BAGASKAR. If no packets are shown the sender has not sent any weather packets the latest 10 day(s).
| Time | Temp. | Humidity | Pressure | Rain* | Wind** | Luminosity | Snow |
|---|---|---|---|---|---|---|---|
| 1778234850 | 8.89° C | 66% | 1026.7 hPa | - | - | - | - |
| 1778233650 | 9.44° C | 56% | 1026.5 hPa | - | - | - | - |
| 1778232451 | 10.56° C | 50% | 1026.5 hPa | - | - | - | - |
| 1778231250 | 10° C | 51% | 1026.5 hPa | - | - | - | - |
| 1778230050 | 11.67° C | 43% | 1026.6 hPa | - | - | - | - |
| 1778228850 | 11.11° C | 52% | 1026.5 hPa | - | - | - | - |
| 1778227651 | 11.11° C | 48% | 1026.4 hPa | - | - | - | - |
| 1778226450 | 10.56° C | 51% | 1026.2 hPa | - | - | - | - |
| 1778224051 | 9.44° C | 48% | 1026.2 hPa | - | - | - | - |
| 1778222850 | 8.89° C | 52% | 1026.1 hPa | - | - | - | - |
| 1778221649 | 8.89° C | 60% | 1025.9 hPa | - | - | - | - |
| 1778220450 | 7.78° C | 58% | 1025.7 hPa | - | - | - | - |
| 1778219250 | 7.22° C | 62% | 1025.5 hPa | - | - | - | - |
| 1778216850 | 6.67° C | 64% | 1025 hPa | - | - | - | - |
| 1778215650 | 6.11° C | 64% | 1024.7 hPa | - | - | - | - |
| 1778213251 | 6.11° C | 66% | 1024.3 hPa | - | - | - | - |
| 1778212050 | 5.56° C | 65% | 1024.1 hPa | - | - | - | - |
| 1778210850 | 5.56° C | 65% | 1023.9 hPa | - | - | - | - |
| 1778209650 | 5.56° C | 66% | 1023.7 hPa | - | - | - | - |
| 1778208449 | 5.56° C | 68% | 1023.4 hPa | - | - | - | - |
| 1778207249 | 5.56° C | 66% | 1023.1 hPa | - | - | - | - |
| 1778206049 | 5.56° C | 65% | 1022.4 hPa | - | - | - | - |
| 1778204849 | 5.56° C | 64% | 1022.6 hPa | - | - | - | - |
| 1778203649 | 5.56° C | 61% | 1022.3 hPa | - | - | - | - |
| 1778202449 | 5.56° C | 63% | 1022.2 hPa | - | - | - | - |
* Rain since midnight (hover to see other rain measurements)
** Current wind speed in m/s (hover to see current wind gust speed)